Etusivu
METAR-TAF:

METAR-TAF

Lentoasemat :

Bagdad, Irak

Bagdadin kansainvälinen lentoasema

Leveyspiiri: 33-15-45N, Pituuspiiri: 44-14-04E, korkeus merenpinnasta: 35 m

Tämänhetkinen sää

Tämä raportti tehtiin 21 minuuttia sitten, kello 07.00 UTC
Tuuli 8 kn pohjoisesta, vaihdellen pohjoisen/luoteen ja koillisen välillä
Lämpötila 34°C
Kosteus 16%
Ilmanpaine 1009 hPa
Näkyvyys 10 km tai enemmän
ei pilviä alle 1500 m:ssä eikä cumulonimbus-pilviä

METAR: ORBI 260700Z 01008KT 340V050 CAVOK 34/05 Q1009 NOSIG

Aika: 10:21 (07:21 UTC)

Sääennuste

Tämä raportti tehtiin 3 tuntia ja 21 minuuttia sitten, kello 04.00 UTC
Ennuste voimassa 26. päivästä klo 06 UTC - 27. päivään klo 06 UTC
Tuuli 8 kn pohjoisesta/koillisesta
Näkyvyys: 8000 m

TAF: ORBI 260400Z 2606/2706 03008KT 8000 NSC

Säähavainnot ja -ennusteet yli 4000 lentoasemalta (METAR- ja TAF-raportit).

Käytössä olevat sääasemat on merkitty karttaan keltaisilla ja punaisilla pisteillä.

Aseta hiiri pisteen päälle nähdäksesi sääaseman nimen.

Klikkaa sitten nähdäksesi säähavainnot ja -ennusteet.

Kartan vaihtaminen: klikkaa mustalla rastilla varustettuja vihreitä pisteitä, niin voit zoomata sisään; viivalla varustettua vihreää pistettä, niin voit zoomata ulos tai vihreitä nuolia, niin pääset viereisille kartoille.


METAR-TAF: